sensor_id;sensor_type;location;lat;lon;timestamp;P1;durP1;ratioP1;P2;durP2;ratioP2
29916;SDS011;16786;49.466;11.068;2024-03-23T00:53:52;13.43;;;10.13;;
29916;SDS011;16786;49.466;11.068;2024-03-23T00:56:18;13.23;;;10.05;;
29916;SDS011;16786;49.466;11.068;2024-03-23T00:58:44;13.00;;;8.85;;
29916;SDS011;16786;49.466;11.068;2024-03-23T01:01:10;15.13;;;9.38;;
29916;SDS011;16786;49.466;11.068;2024-03-23T01:03:36;12.13;;;9.13;;
29916;SDS011;16786;49.466;11.068;2024-03-23T01:06:02;10.55;;;8.88;;
29916;SDS011;16786;49.466;11.068;2024-03-23T01:08:31;14.02;;;10.00;;
29916;SDS011;16786;49.466;11.068;2024-03-23T01:10:58;15.40;;;10.10;;
29916;SDS011;16786;49.466;11.068;2024-03-23T01:13:25;14.07;;;9.27;;
29916;SDS011;16786;49.466;11.068;2024-03-23T01:15:52;12.30;;;10.35;;
29916;SDS011;16786;49.466;11.068;2024-03-23T01:18:19;17.73;;;11.30;;
29916;SDS011;16786;49.466;11.068;2024-03-23T01:20:46;13.48;;;10.27;;
29916;SDS011;16786;49.466;11.068;2024-03-23T01:23:12;15.43;;;10.95;;
29916;SDS011;16786;49.466;11.068;2024-03-23T01:25:38;14.82;;;10.80;;
29916;SDS011;16786;49.466;11.068;2024-03-23T01:28:05;15.05;;;10.77;;
29916;SDS011;16786;49.466;11.068;2024-03-23T01:30:35;15.70;;;10.80;;
29916;SDS011;16786;49.466;11.068;2024-03-23T01:33:01;14.07;;;10.45;;
29916;SDS011;16786;49.466;11.068;2024-03-23T01:35:28;15.15;;;11.35;;
29916;SDS011;16786;49.466;11.068;2024-03-23T01:37:54;14.45;;;10.65;;
29916;SDS011;16786;49.466;11.068;2024-03-23T01:40:20;15.05;;;11.00;;
29916;SDS011;16786;49.466;11.068;2024-03-23T01:42:59;14.60;;;10.98;;
29916;SDS011;16786;49.466;11.068;2024-03-23T01:45:30;14.23;;;9.95;;
29916;SDS011;16786;49.466;11.068;2024-03-23T01:47:56;15.68;;;10.50;;
29916;SDS011;16786;49.466;11.068;2024-03-23T01:50:23;17.75;;;12.02;;
29916;SDS011;16786;49.466;11.068;2024-03-23T01:52:50;16.10;;;10.75;;
29916;SDS011;16786;49.466;11.068;2024-03-23T01:55:16;13.70;;;10.70;;
29916;SDS011;16786;49.466;11.068;2024-03-23T01:57:42;16.33;;;11.65;;
29916;SDS011;16786;49.466;11.068;2024-03-23T02:00:08;14.95;;;10.55;;
29916;SDS011;16786;49.466;11.068;2024-03-23T02:02:44;15.00;;;10.50;;
29916;SDS011;16786;49.466;11.068;2024-03-23T02:05:14;12.80;;;9.80;;
29916;SDS011;16786;49.466;11.068;2024-03-23T02:07:40;15.43;;;10.70;;
29916;SDS011;16786;49.466;11.068;2024-03-23T02:10:08;18.63;;;11.35;;
29916;SDS011;16786;49.466;11.068;2024-03-23T02:12:35;13.85;;;10.45;;
29916;SDS011;16786;49.466;11.068;2024-03-23T02:15:02;14.93;;;10.88;;
29916;SDS011;16786;49.466;11.068;2024-03-23T02:17:30;12.07;;;10.43;;
29916;SDS011;16786;49.466;11.068;2024-03-23T02:19:59;14.45;;;10.75;;
29916;SDS011;16786;49.466;11.068;2024-03-23T02:22:25;14.77;;;10.35;;
29916;SDS011;16786;49.466;11.068;2024-03-23T02:25:03;14.80;;;10.90;;
29916;SDS011;16786;49.466;11.068;2024-03-23T02:27:30;17.58;;;11.52;;
29916;SDS011;16786;49.466;11.068;2024-03-23T02:29:56;16.77;;;11.27;;
29916;SDS011;16786;49.466;11.068;2024-03-23T02:32:22;13.43;;;10.20;;
29916;SDS011;16786;49.466;11.068;2024-03-23T02:34:48;14.02;;;10.23;;
29916;SDS011;16786;49.466;11.068;2024-03-23T02:37:14;12.93;;;9.95;;
29916;SDS011;16786;49.466;11.068;2024-03-23T02:39:40;15.05;;;10.02;;
29916;SDS011;16786;49.466;11.068;2024-03-23T02:42:06;14.88;;;11.13;;
29916;SDS011;16786;49.466;11.068;2024-03-23T02:44:32;18.15;;;10.25;;
29916;SDS011;16786;49.466;11.068;2024-03-23T02:46:58;15.95;;;10.55;;
29916;SDS011;16786;49.466;11.068;2024-03-23T02:49:24;14.02;;;10.00;;
29916;SDS011;16786;49.466;11.068;2024-03-23T02:51:50;18.15;;;10.93;;
29916;SDS011;16786;49.466;11.068;2024-03-23T02:54:16;14.93;;;10.48;;
29916;SDS011;16786;49.466;11.068;2024-03-23T02:56:42;16.73;;;10.85;;
29916;SDS011;16786;49.466;11.068;2024-03-23T02:59:08;16.15;;;10.70;;
29916;SDS011;16786;49.466;11.068;2024-03-23T03:01:35;14.23;;;10.77;;
29916;SDS011;16786;49.466;11.068;2024-03-23T03:04:01;12.98;;;10.18;;
29916;SDS011;16786;49.466;11.068;2024-03-23T03:06:27;12.57;;;10.23;;
29916;SDS011;16786;49.466;11.068;2024-03-23T03:08:53;12.90;;;10.30;;
29916;SDS011;16786;49.466;11.068;2024-03-23T03:11:19;16.02;;;10.50;;
29916;SDS011;16786;49.466;11.068;2024-03-23T03:13:45;14.52;;;10.13;;
29916;SDS011;16786;49.466;11.068;2024-03-23T03:16:11;13.35;;;10.02;;
29916;SDS011;16786;49.466;11.068;2024-03-23T03:18:38;12.45;;;10.32;;
29916;SDS011;16786;49.466;11.068;2024-03-23T03:21:06;12.70;;;10.15;;
29916;SDS011;16786;49.466;11.068;2024-03-23T03:23:39;14.05;;;11.27;;
29916;SDS011;16786;49.466;11.068;2024-03-23T03:26:05;15.93;;;10.02;;
29916;SDS011;16786;49.466;11.068;2024-03-23T03:28:32;13.85;;;10.40;;
29916;SDS011;16786;49.466;11.068;2024-03-23T03:30:58;14.55;;;11.43;;
29916;SDS011;16786;49.466;11.068;2024-03-23T03:33:28;13.88;;;10.73;;
29916;SDS011;16786;49.466;11.068;2024-03-23T03:35:54;16.77;;;10.35;;
29916;SDS011;16786;49.466;11.068;2024-03-23T03:38:20;12.82;;;10.80;;
29916;SDS011;16786;49.466;11.068;2024-03-23T03:40:47;14.57;;;11.38;;
29916;SDS011;16786;49.466;11.068;2024-03-23T03:43:13;12.77;;;10.98;;
29916;SDS011;16786;49.466;11.068;2024-03-23T03:45:39;13.10;;;10.90;;
29916;SDS011;16786;49.466;11.068;2024-03-23T03:48:05;15.13;;;10.95;;
29916;SDS011;16786;49.466;11.068;2024-03-23T03:50:32;14.65;;;11.43;;
29916;SDS011;16786;49.466;11.068;2024-03-23T03:52:58;16.75;;;11.20;;
29916;SDS011;16786;49.466;11.068;2024-03-23T03:55:24;15.48;;;11.10;;
29916;SDS011;16786;49.466;11.068;2024-03-23T03:57:50;17.52;;;11.40;;
29916;SDS011;16786;49.466;11.068;2024-03-23T04:00:16;13.98;;;10.88;;
29916;SDS011;16786;49.466;11.068;2024-03-23T04:02:42;16.92;;;11.52;;
29916;SDS011;16786;49.466;11.068;2024-03-23T04:05:08;17.25;;;11.57;;
29916;SDS011;16786;49.466;11.068;2024-03-23T04:07:34;13.77;;;10.52;;
29916;SDS011;16786;49.466;11.068;2024-03-23T04:10:00;14.10;;;11.48;;
29916;SDS011;16786;49.466;11.068;2024-03-23T04:12:26;16.90;;;11.32;;
29916;SDS011;16786;49.466;11.068;2024-03-23T04:14:52;14.25;;;11.48;;
29916;SDS011;16786;49.466;11.068;2024-03-23T04:17:18;15.32;;;11.57;;
29916;SDS011;16786;49.466;11.068;2024-03-23T04:19:45;14.40;;;11.88;;
29916;SDS011;16786;49.466;11.068;2024-03-23T04:22:11;16.23;;;11.70;;
29916;SDS011;16786;49.466;11.068;2024-03-23T04:24:37;13.57;;;11.20;;
29916;SDS011;16786;49.466;11.068;2024-03-23T04:27:03;18.27;;;11.32;;
29916;SDS011;16786;49.466;11.068;2024-03-23T04:29:29;17.52;;;11.70;;
29916;SDS011;16786;49.466;11.068;2024-03-23T04:31:55;15.57;;;11.88;;
29916;SDS011;16786;49.466;11.068;2024-03-23T04:34:21;14.63;;;10.93;;
29916;SDS011;16786;49.466;11.068;2024-03-23T04:36:48;13.85;;;10.82;;
29916;SDS011;16786;49.466;11.068;2024-03-23T04:39:14;15.23;;;11.65;;
29916;SDS011;16786;49.466;11.068;2024-03-23T04:41:40;15.40;;;11.18;;
29916;SDS011;16786;49.466;11.068;2024-03-23T04:44:06;17.90;;;10.40;;
29916;SDS011;16786;49.466;11.068;2024-03-23T04:46:32;18.48;;;11.50;;
29916;SDS011;16786;49.466;11.068;2024-03-23T04:48:58;15.10;;;11.65;;
29916;SDS011;16786;49.466;11.068;2024-03-23T04:51:24;18.92;;;11.93;;
29916;SDS011;16786;49.466;11.068;2024-03-23T04:53:51;14.18;;;10.93;;
29916;SDS011;16786;49.466;11.068;2024-03-23T04:56:17;17.33;;;10.88;;
29916;SDS011;16786;49.466;11.068;2024-03-23T04:58:43;14.75;;;10.75;;
29916;SDS011;16786;49.466;11.068;2024-03-23T05:01:13;14.50;;;11.10;;
29916;SDS011;16786;49.466;11.068;2024-03-23T05:03:39;15.05;;;10.45;;
29916;SDS011;16786;49.466;11.068;2024-03-23T05:06:05;14.43;;;10.68;;
29916;SDS011;16786;49.466;11.068;2024-03-23T05:08:31;19.60;;;10.57;;
29916;SDS011;16786;49.466;11.068;2024-03-23T05:10:57;12.20;;;9.88;;
29916;SDS011;16786;49.466;11.068;2024-03-23T05:13:23;16.38;;;10.85;;
29916;SDS011;16786;49.466;11.068;2024-03-23T05:15:53;15.52;;;10.27;;
29916;SDS011;16786;49.466;11.068;2024-03-23T05:18:20;15.75;;;10.77;;
29916;SDS011;16786;49.466;11.068;2024-03-23T05:20:46;12.38;;;9.95;;
29916;SDS011;16786;49.466;11.068;2024-03-23T05:23:12;13.85;;;9.82;;
29916;SDS011;16786;49.466;11.068;2024-03-23T05:25:38;14.40;;;9.68;;
29916;SDS011;16786;49.466;11.068;2024-03-23T05:28:04;13.35;;;9.35;;
29916;SDS011;16786;49.466;11.068;2024-03-23T05:30:31;11.50;;;8.32;;
29916;SDS011;16786;49.466;11.068;2024-03-23T05:32:56;13.23;;;9.60;;
29916;SDS011;16786;49.466;11.068;2024-03-23T05:35:23;12.45;;;8.95;;
29916;SDS011;16786;49.466;11.068;2024-03-23T05:37:48;14.18;;;10.10;;
29916;SDS011;16786;49.466;11.068;2024-03-23T05:40:16;14.25;;;9.88;;
29916;SDS011;16786;49.466;11.068;2024-03-23T05:42:42;12.82;;;10.23;;
29916;SDS011;16786;49.466;11.068;2024-03-23T05:45:08;15.73;;;10.00;;
29916;SDS011;16786;49.466;11.068;2024-03-23T05:47:34;17.45;;;11.57;;
29916;SDS011;16786;49.466;11.068;2024-03-23T05:50:00;18.75;;;10.00;;
29916;SDS011;16786;49.466;11.068;2024-03-23T05:52:28;18.05;;;10.05;;
29916;SDS011;16786;49.466;11.068;2024-03-23T05:54:54;14.18;;;9.65;;
29916;SDS011;16786;49.466;11.068;2024-03-23T05:57:21;12.45;;;9.15;;
29916;SDS011;16786;49.466;11.068;2024-03-23T05:59:47;14.35;;;9.32;;
29916;SDS011;16786;49.466;11.068;2024-03-23T06:02:13;14.93;;;8.30;;
29916;SDS011;16786;49.466;11.068;2024-03-23T06:04:39;13.45;;;8.60;;
29916;SDS011;16786;49.466;11.068;2024-03-23T06:07:05;9.45;;;8.15;;
29916;SDS011;16786;49.466;11.068;2024-03-23T06:09:32;9.10;;;7.32;;
29916;SDS011;16786;49.466;11.068;2024-03-23T06:11:58;9.25;;;7.25;;
29916;SDS011;16786;49.466;11.068;2024-03-23T06:14:24;10.00;;;7.80;;
29916;SDS011;16786;49.466;11.068;2024-03-23T06:16:50;9.05;;;8.10;;
29916;SDS011;16786;49.466;11.068;2024-03-23T06:19:16;10.73;;;8.10;;
29916;SDS011;16786;49.466;11.068;2024-03-23T06:21:45;11.30;;;9.05;;
29916;SDS011;16786;49.466;11.068;2024-03-23T06:24:11;12.63;;;7.97;;
29916;SDS011;16786;49.466;11.068;2024-03-23T06:26:38;11.25;;;8.23;;
29916;SDS011;16786;49.466;11.068;2024-03-23T06:29:04;11.63;;;8.90;;
29916;SDS011;16786;49.466;11.068;2024-03-23T06:31:30;12.60;;;9.10;;
29916;SDS011;16786;49.466;11.068;2024-03-23T06:33:57;12.77;;;9.23;;
29916;SDS011;16786;49.466;11.068;2024-03-23T06:36:23;12.10;;;9.18;;
29916;SDS011;16786;49.466;11.068;2024-03-23T06:38:49;12.48;;;9.63;;
29916;SDS011;16786;49.466;11.068;2024-03-23T06:41:16;14.32;;;10.13;;
29916;SDS011;16786;49.466;11.068;2024-03-23T06:43:43;14.70;;;10.32;;
29916;SDS011;16786;49.466;11.068;2024-03-23T06:46:09;18.48;;;12.57;;
29916;SDS011;16786;49.466;11.068;2024-03-23T06:48:34;15.32;;;10.63;;
29916;SDS011;16786;49.466;11.068;2024-03-23T06:51:00;17.42;;;11.65;;
29916;SDS011;16786;49.466;11.068;2024-03-23T06:53:26;13.70;;;11.00;;
29916;SDS011;16786;49.466;11.068;2024-03-23T06:55:53;18.15;;;11.25;;
29916;SDS011;16786;49.466;11.068;2024-03-23T06:58:20;17.08;;;11.48;;
29916;SDS011;16786;49.466;11.068;2024-03-23T07:00:46;14.65;;;10.07;;
29916;SDS011;16786;49.466;11.068;2024-03-23T07:03:13;18.52;;;11.05;;
29916;SDS011;16786;49.466;11.068;2024-03-23T07:05:39;16.35;;;11.43;;
29916;SDS011;16786;49.466;11.068;2024-03-23T07:08:05;17.73;;;11.38;;
29916;SDS011;16786;49.466;11.068;2024-03-23T07:10:31;16.35;;;10.55;;
29916;SDS011;16786;49.466;11.068;2024-03-23T07:12:57;16.67;;;10.60;;
29916;SDS011;16786;49.466;11.068;2024-03-23T07:15:24;14.48;;;9.73;;
29916;SDS011;16786;49.466;11.068;2024-03-23T07:17:50;15.70;;;9.93;;
29916;SDS011;16786;49.466;11.068;2024-03-23T07:20:16;16.17;;;9.30;;
29916;SDS011;16786;49.466;11.068;2024-03-23T07:22:42;12.48;;;9.05;;
29916;SDS011;16786;49.466;11.068;2024-03-23T07:25:08;13.52;;;8.40;;
29916;SDS011;16786;49.466;11.068;2024-03-23T07:27:34;12.70;;;8.25;;
29916;SDS011;16786;49.466;11.068;2024-03-23T07:30:00;12.65;;;8.02;;
29916;SDS011;16786;49.466;11.068;2024-03-23T07:32:26;13.52;;;8.60;;
29916;SDS011;16786;49.466;11.068;2024-03-23T07:34:52;13.50;;;7.70;;
29916;SDS011;16786;49.466;11.068;2024-03-23T07:37:18;12.05;;;7.53;;
29916;SDS011;16786;49.466;11.068;2024-03-23T07:39:44;9.93;;;7.07;;
29916;SDS011;16786;49.466;11.068;2024-03-23T07:42:10;12.45;;;7.97;;
29916;SDS011;16786;49.466;11.068;2024-03-23T07:44:36;14.20;;;8.93;;
29916;SDS011;16786;49.466;11.068;2024-03-23T07:47:03;12.15;;;8.02;;
29916;SDS011;16786;49.466;11.068;2024-03-23T07:49:29;16.27;;;7.93;;
29916;SDS011;16786;49.466;11.068;2024-03-23T07:51:55;13.70;;;8.40;;
29916;SDS011;16786;49.466;11.068;2024-03-23T07:54:21;13.18;;;8.70;;
29916;SDS011;16786;49.466;11.068;2024-03-23T07:56:47;11.02;;;7.72;;
29916;SDS011;16786;49.466;11.068;2024-03-23T07:59:13;12.40;;;7.90;;
29916;SDS011;16786;49.466;11.068;2024-03-23T08:01:39;12.43;;;8.35;;
29916;SDS011;16786;49.466;11.068;2024-03-23T08:04:05;13.07;;;8.40;;
29916;SDS011;16786;49.466;11.068;2024-03-23T08:06:31;13.80;;;8.15;;
29916;SDS011;16786;49.466;11.068;2024-03-23T08:08:57;14.40;;;9.02;;
29916;SDS011;16786;49.466;11.068;2024-03-23T08:11:27;12.60;;;8.95;;
29916;SDS011;16786;49.466;11.068;2024-03-23T08:13:54;12.50;;;7.65;;
29916;SDS011;16786;49.466;11.068;2024-03-23T08:16:21;11.65;;;7.95;;
29916;SDS011;16786;49.466;11.068;2024-03-23T08:18:47;13.23;;;8.02;;
29916;SDS011;16786;49.466;11.068;2024-03-23T08:21:13;11.60;;;7.88;;
29916;SDS011;16786;49.466;11.068;2024-03-23T08:23:39;10.88;;;6.97;;
29916;SDS011;16786;49.466;11.068;2024-03-23T08:26:09;12.20;;;7.05;;
29916;SDS011;16786;49.466;11.068;2024-03-23T08:28:37;9.15;;;6.32;;
29916;SDS011;16786;49.466;11.068;2024-03-23T08:31:07;9.18;;;5.68;;
29916;SDS011;16786;49.466;11.068;2024-03-23T08:33:34;9.43;;;6.00;;
29916;SDS011;16786;49.466;11.068;2024-03-23T08:36:01;10.32;;;6.30;;
29916;SDS011;16786;49.466;11.068;2024-03-23T08:38:28;8.13;;;5.80;;
29916;SDS011;16786;49.466;11.068;2024-03-23T08:40:58;6.65;;;4.40;;
29916;SDS011;16786;49.466;11.068;2024-03-23T08:43:28;6.47;;;4.07;;
29916;SDS011;16786;49.466;11.068;2024-03-23T08:46:14;7.95;;;4.10;;
29916;SDS011;16786;49.466;11.068;2024-03-23T08:48:45;4.43;;;3.75;;
29916;SDS011;16786;49.466;11.068;2024-03-23T08:51:15;5.97;;;4.50;;
29916;SDS011;16786;49.466;11.068;2024-03-23T08:53:42;4.70;;;3.97;;
29916;SDS011;16786;49.466;11.068;2024-03-23T08:56:08;6.03;;;3.88;;
29916;SDS011;16786;49.466;11.068;2024-03-23T08:58:35;7.70;;;4.32;;
29916;SDS011;16786;49.466;11.068;2024-03-23T09:01:09;6.43;;;4.38;;
29916;SDS011;16786;49.466;11.068;2024-03-23T09:03:37;6.55;;;4.32;;
29916;SDS011;16786;49.466;11.068;2024-03-23T09:06:06;4.70;;;3.75;;
29916;SDS011;16786;49.466;11.068;2024-03-23T09:08:37;4.22;;;3.50;;
29916;SDS011;16786;49.466;11.068;2024-03-23T09:11:03;3.78;;;3.10;;
29916;SDS011;16786;49.466;11.068;2024-03-23T09:13:34;4.63;;;3.50;;
29916;SDS011;16786;49.466;11.068;2024-03-23T09:16:04;5.55;;;4.10;;
29916;SDS011;16786;49.466;11.068;2024-03-23T09:18:31;3.92;;;3.15;;
29916;SDS011;16786;49.466;11.068;2024-03-23T09:20:58;3.60;;;2.80;;
29916;SDS011;16786;49.466;11.068;2024-03-23T09:23:24;4.70;;;3.30;;
29916;SDS011;16786;49.466;11.068;2024-03-23T09:25:50;3.47;;;2.80;;
29916;SDS011;16786;49.466;11.068;2024-03-23T09:28:16;3.10;;;2.65;;
29916;SDS011;16786;49.466;11.068;2024-03-23T09:30:42;2.70;;;2.50;;
29916;SDS011;16786;49.466;11.068;2024-03-23T09:33:08;2.58;;;2.22;;
29916;SDS011;16786;49.466;11.068;2024-03-23T09:38:05;2.58;;;2.30;;
29916;SDS011;16786;49.466;11.068;2024-03-23T09:40:32;2.53;;;2.22;;
29916;SDS011;16786;49.466;11.068;2024-03-23T09:42:59;2.42;;;2.00;;
29916;SDS011;16786;49.466;11.068;2024-03-23T09:45:28;4.30;;;2.45;;
29916;SDS011;16786;49.466;11.068;2024-03-23T09:47:55;2.85;;;2.50;;
29916;SDS011;16786;49.466;11.068;2024-03-23T09:50:22;3.65;;;2.30;;
29916;SDS011;16786;49.466;11.068;2024-03-23T09:52:48;4.38;;;2.50;;
29916;SDS011;16786;49.466;11.068;2024-03-23T09:55:14;2.45;;;2.17;;
29916;SDS011;16786;49.466;11.068;2024-03-23T09:57:41;2.50;;;2.30;;
29916;SDS011;16786;49.466;11.068;2024-03-23T10:00:07;4.28;;;2.20;;
29916;SDS011;16786;49.466;11.068;2024-03-23T10:02:34;2.50;;;2.30;;
29916;SDS011;16786;49.466;11.068;2024-03-23T10:05:01;2.88;;;2.10;;
29916;SDS011;16786;49.466;11.068;2024-03-23T10:07:27;2.50;;;2.30;;
29916;SDS011;16786;49.466;11.068;2024-03-23T10:09:54;2.88;;;2.58;;
29916;SDS011;16786;49.466;11.068;2024-03-23T10:12:20;2.75;;;2.35;;
29916;SDS011;16786;49.466;11.068;2024-03-23T10:14:46;2.72;;;2.50;;
29916;SDS011;16786;49.466;11.068;2024-03-23T10:17:13;3.20;;;2.65;;
29916;SDS011;16786;49.466;11.068;2024-03-23T10:19:50;2.70;;;2.50;;
29916;SDS011;16786;49.466;11.068;2024-03-23T10:22:17;4.40;;;2.63;;
29916;SDS011;16786;49.466;11.068;2024-03-23T10:24:45;3.05;;;2.75;;
29916;SDS011;16786;49.466;11.068;2024-03-23T10:27:20;3.50;;;3.00;;
29916;SDS011;16786;49.466;11.068;2024-03-23T10:29:47;3.75;;;3.00;;
29916;SDS011;16786;49.466;11.068;2024-03-23T10:32:15;3.10;;;2.80;;
29916;SDS011;16786;49.466;11.068;2024-03-23T10:34:42;3.67;;;3.13;;
29916;SDS011;16786;49.466;11.068;2024-03-23T10:37:08;3.97;;;3.10;;
29916;SDS011;16786;49.466;11.068;2024-03-23T10:39:36;4.22;;;3.10;;
29916;SDS011;16786;49.466;11.068;2024-03-23T10:42:03;3.92;;;3.47;;
29916;SDS011;16786;49.466;11.068;2024-03-23T10:44:31;5.70;;;3.63;;
29916;SDS011;16786;49.466;11.068;2024-03-23T10:47:00;5.05;;;3.72;;
29916;SDS011;16786;49.466;11.068;2024-03-23T10:49:31;4.55;;;3.60;;
29916;SDS011;16786;49.466;11.068;2024-03-23T10:51:59;7.28;;;3.67;;
29916;SDS011;16786;49.466;11.068;2024-03-23T10:54:26;4.88;;;3.78;;
29916;SDS011;16786;49.466;11.068;2024-03-23T10:56:55;4.53;;;3.55;;
29916;SDS011;16786;49.466;11.068;2024-03-23T10:59:29;6.45;;;3.72;;
29916;SDS011;16786;49.466;11.068;2024-03-23T11:01:56;4.85;;;3.63;;
29916;SDS011;16786;49.466;11.068;2024-03-23T11:04:29;7.03;;;4.28;;
29916;SDS011;16786;49.466;11.068;2024-03-23T11:06:56;6.60;;;4.10;;
29916;SDS011;16786;49.466;11.068;2024-03-23T11:12:34;5.22;;;4.00;;
29916;SDS011;16786;49.466;11.068;2024-03-23T11:15:11;8.50;;;5.90;;
29916;SDS011;16786;49.466;11.068;2024-03-23T11:17:37;5.63;;;4.47;;
29916;SDS011;16786;49.466;11.068;2024-03-23T11:20:04;6.38;;;4.50;;
29916;SDS011;16786;49.466;11.068;2024-03-23T11:22:38;5.05;;;4.30;;
29916;SDS011;16786;49.466;11.068;2024-03-23T11:25:20;6.47;;;4.68;;
29916;SDS011;16786;49.466;11.068;2024-03-23T11:27:48;9.25;;;5.60;;
29916;SDS011;16786;49.466;11.068;2024-03-23T11:30:22;6.10;;;5.43;;
29916;SDS011;16786;49.466;11.068;2024-03-23T11:32:49;7.47;;;5.97;;
29916;SDS011;16786;49.466;11.068;2024-03-23T11:38:06;8.82;;;5.07;;
29916;SDS011;16786;49.466;11.068;2024-03-23T11:40:35;8.60;;;4.97;;
29916;SDS011;16786;49.466;11.068;2024-03-23T11:43:02;6.55;;;4.53;;
29916;SDS011;16786;49.466;11.068;2024-03-23T11:45:36;7.72;;;5.22;;
29916;SDS011;16786;49.466;11.068;2024-03-23T11:48:08;6.95;;;4.90;;
29916;SDS011;16786;49.466;11.068;2024-03-23T11:50:38;8.90;;;5.07;;
29916;SDS011;16786;49.466;11.068;2024-03-23T11:58:18;8.02;;;4.90;;
29916;SDS011;16786;49.466;11.068;2024-03-23T12:00:51;7.10;;;5.45;;
29916;SDS011;16786;49.466;11.068;2024-03-23T12:03:19;8.03;;;4.97;;
29916;SDS011;16786;49.466;11.068;2024-03-23T12:05:51;7.93;;;4.95;;
29916;SDS011;16786;49.466;11.068;2024-03-23T12:08:20;6.40;;;5.03;;
29916;SDS011;16786;49.466;11.068;2024-03-23T12:10:52;5.57;;;4.63;;
29916;SDS011;16786;49.466;11.068;2024-03-23T12:13:30;6.68;;;4.90;;
29916;SDS011;16786;49.466;11.068;2024-03-23T12:15:58;6.35;;;4.60;;
29916;SDS011;16786;49.466;11.068;2024-03-23T12:18:34;7.18;;;5.00;;
29916;SDS011;16786;49.466;11.068;2024-03-23T12:21:00;8.57;;;5.25;;
29916;SDS011;16786;49.466;11.068;2024-03-23T12:23:26;7.30;;;4.90;;
29916;SDS011;16786;49.466;11.068;2024-03-23T12:25:52;6.90;;;5.45;;
29916;SDS011;16786;49.466;11.068;2024-03-23T12:28:18;5.93;;;4.85;;
29916;SDS011;16786;49.466;11.068;2024-03-23T12:30:43;8.88;;;5.28;;
29916;SDS011;16786;49.466;11.068;2024-03-23T12:33:09;7.68;;;5.22;;
29916;SDS011;16786;49.466;11.068;2024-03-23T12:35:35;8.23;;;5.15;;
29916;SDS011;16786;49.466;11.068;2024-03-23T12:38:01;8.27;;;5.40;;
29916;SDS011;16786;49.466;11.068;2024-03-23T12:40:27;7.20;;;5.05;;
29916;SDS011;16786;49.466;11.068;2024-03-23T12:42:54;6.43;;;4.88;;
29916;SDS011;16786;49.466;11.068;2024-03-23T12:45:21;8.32;;;5.60;;
29916;SDS011;16786;49.466;11.068;2024-03-23T12:47:48;8.30;;;5.35;;
29916;SDS011;16786;49.466;11.068;2024-03-23T12:50:13;9.40;;;6.00;;
29916;SDS011;16786;49.466;11.068;2024-03-23T12:52:39;8.18;;;6.20;;
29916;SDS011;16786;49.466;11.068;2024-03-23T12:55:05;8.20;;;5.50;;
29916;SDS011;16786;49.466;11.068;2024-03-23T12:57:32;8.57;;;6.20;;
29916;SDS011;16786;49.466;11.068;2024-03-23T12:59:58;6.00;;;5.40;;
29916;SDS011;16786;49.466;11.068;2024-03-23T13:02:24;7.30;;;5.70;;
29916;SDS011;16786;49.466;11.068;2024-03-23T13:04:51;7.15;;;6.00;;
29916;SDS011;16786;49.466;11.068;2024-03-23T13:07:18;11.18;;;6.10;;
29916;SDS011;16786;49.466;11.068;2024-03-23T13:09:44;8.32;;;6.13;;
29916;SDS011;16786;49.466;11.068;2024-03-23T13:12:11;9.73;;;6.20;;
29916;SDS011;16786;49.466;11.068;2024-03-23T13:14:40;10.43;;;6.28;;
29916;SDS011;16786;49.466;11.068;2024-03-23T13:17:07;7.82;;;6.35;;
29916;SDS011;16786;49.466;11.068;2024-03-23T13:19:34;7.93;;;5.90;;
29916;SDS011;16786;49.466;11.068;2024-03-23T13:22:00;10.02;;;6.78;;
29916;SDS011;16786;49.466;11.068;2024-03-23T13:24:27;7.72;;;6.28;;
29916;SDS011;16786;49.466;11.068;2024-03-23T13:26:54;9.40;;;6.57;;
29916;SDS011;16786;49.466;11.068;2024-03-23T13:29:20;7.85;;;6.70;;
29916;SDS011;16786;49.466;11.068;2024-03-23T13:31:47;10.50;;;6.47;;
29916;SDS011;16786;49.466;11.068;2024-03-23T13:34:14;8.93;;;6.38;;
29916;SDS011;16786;49.466;11.068;2024-03-23T13:36:41;10.90;;;6.68;;
29916;SDS011;16786;49.466;11.068;2024-03-23T13:39:08;10.75;;;5.95;;
29916;SDS011;16786;49.466;11.068;2024-03-23T13:41:38;8.13;;;6.25;;
29916;SDS011;16786;49.466;11.068;2024-03-23T13:44:08;10.38;;;6.30;;
29916;SDS011;16786;49.466;11.068;2024-03-23T13:46:36;10.20;;;6.30;;
29916;SDS011;16786;49.466;11.068;2024-03-23T13:49:03;8.10;;;6.45;;
29916;SDS011;16786;49.466;11.068;2024-03-23T13:51:29;7.22;;;5.97;;
29916;SDS011;16786;49.466;11.068;2024-03-23T13:53:56;8.60;;;6.40;;
29916;SDS011;16786;49.466;11.068;2024-03-23T13:56:23;8.20;;;6.70;;
29916;SDS011;16786;49.466;11.068;2024-03-23T13:58:49;7.32;;;5.88;;
29916;SDS011;16786;49.466;11.068;2024-03-23T14:01:15;9.55;;;6.95;;
29916;SDS011;16786;49.466;11.068;2024-03-23T14:03:42;7.38;;;6.15;;
29916;SDS011;16786;49.466;11.068;2024-03-23T14:06:08;7.75;;;6.15;;
29916;SDS011;16786;49.466;11.068;2024-03-23T14:08:36;7.63;;;6.10;;
29916;SDS011;16786;49.466;11.068;2024-03-23T14:11:08;9.70;;;6.18;;
29916;SDS011;16786;49.466;11.068;2024-03-23T14:13:35;7.43;;;6.00;;
29916;SDS011;16786;49.466;11.068;2024-03-23T14:16:01;8.43;;;6.75;;
29916;SDS011;16786;49.466;11.068;2024-03-23T14:18:27;9.05;;;6.10;;
29916;SDS011;16786;49.466;11.068;2024-03-23T14:20:57;7.63;;;5.75;;
29916;SDS011;16786;49.466;11.068;2024-03-23T14:23:25;5.70;;;5.20;;
29916;SDS011;16786;49.466;11.068;2024-03-23T14:25:58;7.72;;;6.07;;
29916;SDS011;16786;49.466;11.068;2024-03-23T14:28:25;7.32;;;6.32;;
29916;SDS011;16786;49.466;11.068;2024-03-23T14:30:51;8.55;;;6.50;;
29916;SDS011;16786;49.466;11.068;2024-03-23T14:33:18;9.13;;;6.25;;
29916;SDS011;16786;49.466;11.068;2024-03-23T14:35:56;10.27;;;6.57;;
29916;SDS011;16786;49.466;11.068;2024-03-23T14:38:23;9.32;;;6.60;;
29916;SDS011;16786;49.466;11.068;2024-03-23T14:40:49;9.02;;;6.13;;
29916;SDS011;16786;49.466;11.068;2024-03-23T14:43:17;9.48;;;6.30;;
29916;SDS011;16786;49.466;11.068;2024-03-23T14:51:02;6.53;;;5.32;;
29916;SDS011;16786;49.466;11.068;2024-03-23T14:53:35;9.82;;;6.07;;
29916;SDS011;16786;49.466;11.068;2024-03-23T14:56:06;10.23;;;6.55;;
29916;SDS011;16786;49.466;11.068;2024-03-23T14:58:33;8.80;;;6.85;;
29916;SDS011;16786;49.466;11.068;2024-03-23T15:01:02;10.10;;;6.60;;
29916;SDS011;16786;49.466;11.068;2024-03-23T15:03:29;8.18;;;6.13;;
29916;SDS011;16786;49.466;11.068;2024-03-23T15:05:58;8.60;;;6.22;;
29916;SDS011;16786;49.466;11.068;2024-03-23T15:08:25;10.00;;;6.18;;
29916;SDS011;16786;49.466;11.068;2024-03-23T15:10:53;15.95;;;7.25;;
29916;SDS011;16786;49.466;11.068;2024-03-23T15:13:19;10.93;;;6.32;;
29916;SDS011;16786;49.466;11.068;2024-03-23T15:15:48;12.00;;;8.75;;
29916;SDS011;16786;49.466;11.068;2024-03-23T15:18:15;9.18;;;6.85;;
29916;SDS011;16786;49.466;11.068;2024-03-23T15:20:41;10.27;;;8.93;;
29916;SDS011;16786;49.466;11.068;2024-03-23T15:23:16;11.98;;;7.25;;
29916;SDS011;16786;49.466;11.068;2024-03-23T15:25:42;8.80;;;6.38;;
29916;SDS011;16786;49.466;11.068;2024-03-23T15:28:08;8.48;;;5.45;;
29916;SDS011;16786;49.466;11.068;2024-03-23T15:30:35;9.43;;;6.13;;
29916;SDS011;16786;49.466;11.068;2024-03-23T15:33:01;7.03;;;5.07;;
29916;SDS011;16786;49.466;11.068;2024-03-23T15:35:27;7.30;;;5.63;;